Date,TemperatureHighF,TemperatureAvgF,TemperatureLowF,DewpointHighF,DewpointAvgF,DewpointLowF,HumidityHigh,HumidityAvg,HumidityLow,PressureMaxIn,PressureMinIn,WindSpeedMaxMPH,WindSpeedAvgMPH,GustSpeedMaxMPH,PrecipitationSumIn
2013-2-1,49,41,35,42,38,31,98,86,64,29.57,29.19,0,-999,0,0.00
2013-2-2,45,37,27,39,27,19,98,67,44,29.96,29.34,0,-999,0,0.00
2013-2-3,48,40,27,46,36,21,97,86,76,29.96,29.63,0,-999,0,0.00
2013-2-4,54,48,41,47,36,25,96,66,37,29.66,29.45,0,-999,0,0.00
2013-2-5,47,40,34,39,29,19,95,67,39,29.42,29.07,0,-999,0,0.00
2013-2-6,47,39,34,38,30,23,91,70,50,29.75,29.10,0,-999,0,0.00
2013-2-7,47,37,32,33,26,21,96,66,41,29.81,29.69,0,-999,0,0.00
2013-2-8,48,37,30,38,31,25,98,80,42,29.87,29.75,0,-999,0,0.00
2013-2-9,40,37,33,36,33,29,97,88,79,29.87,29.57,0,-999,0,0.00
2013-2-10,41,37,33,40,37,32,98,97,93,29.57,29.01,0,-999,0,0.00
2013-2-11,36,34,33,36,33,32,98,97,92,29.48,29.04,0,-999,0,0.00
2013-2-12,37,34,32,33,29,25,98,81,70,29.84,29.48,0,-999,0,0.00
2013-2-13,38,35,32,38,26,17,98,72,45,29.90,29.69,0,-999,0,0.00
2013-2-14,55,46,35,49,40,33,98,82,51,29.69,29.45,0,-999,0,0.00
2013-2-15,56,41,32,47,34,29,98,78,44,29.90,29.69,0,-999,0,0.00
2013-2-16,57,44,32,45,33,26,98,69,38,29.96,29.90,0,-999,0,0.00
2013-2-17,57,40,31,45,34,25,98,81,32,29.93,29.81,0,-999,0,0.00
2013-2-18,54,40,31,40,33,28,98,80,41,29.87,29.81,0,-999,0,0.00
2013-2-19,59,38,24,46,29,24,98,75,36,29.84,29.75,0,-999,0,0.00
2013-2-20,47,37,34,38,29,21,98,73,42,29.96,29.81,0,-999,0,0.00
2013-2-21,36,34,32,22,18,14,59,50,43,29.96,29.87,0,-999,0,0.00
2013-2-22,37,33,32,22,18,15,62,53,44,29.87,29.81,0,-999,0,0.00
2013-2-23,39,34,31,28,22,17,81,64,44,29.93,29.78,0,-999,0,0.00
2013-2-24,37,34,32,29,26,22,85,71,61,29.99,29.90,0,-999,0,0.00
2013-2-25,40,37,34,36,33,27,93,86,73,30.07,29.96,0,-999,0,0.00
2013-2-26,40,38,36,40,37,34,98,96,90,30.25,30.07,0,-999,0,0.00
2013-2-27,49,38,35,37,33,28,98,83,49,30.28,30.19,0,-999,0,0.00
2013-2-28,50,40,34,35,32,27,94,75,42,30.19,30.04,0,-999,0,0.00